Terminal Aerodrome Forecast
Issued by NWS North Platte, NE

Current Version | Previous Version | Text Only | Print | Product List | Glossary On
Versions: 1 2 3 4 5 6 7 8 9 10 11 12 13 14 15 16
000
FTUS43 KLBF 041100
TAFLBF
TAF
KLBF 041130Z 0412/0512 12008KT P6SM SCT090
     FM041500 16013G19KT P6SM SCT150
     FM042300 15015G22KT P6SM VCTS SCT050CB BKN150
     FM050300 13008KT P6SM BKN150
     FM050700 14007KT P6SM SCT090=

USA.gov is the U.S. government's official web portal to all federal, state and local government web resources and services.